Time;durP1;ratioP1;P1;durP2;ratioP2;P2;SDS_P1;SDS_P2;PMS_P1;PMS_P2;Temp;Humidity;BMP_temperature;BMP_pressure;BME280_temperature;BME280_humidity;BME280_pressure;Samples;Min_cycle;Max_cycle;Signal;HPM_P1;HPM_P2
2022/12/01 00:02:02;;;;;;;;;;;10.10;76.30;;;;;;5044925;28;19913;-82
2022/12/01 00:04:28;;;;;;;;;;;10.10;76.40;;;;;;5030454;28;19967;-83
2022/12/01 00:06:54;;;;;;;;;;;10.10;76.30;;;;;;5045113;28;19919;-82
2022/12/01 00:12:04;;;;;;;;;;;10.10;76.40;;;;;;5043975;28;19921;-82
2022/12/01 00:14:29;;;;;;;;;;;10.10;76.40;;;;;;5030969;28;19924;-81
2022/12/01 00:16:55;;;;;;;;;;;10.10;76.40;;;;;;5042577;28;19928;-83
2022/12/01 00:19:24;;;;;;;;;;;10.10;76.40;;;;;;5039042;28;19924;-83
2022/12/01 00:21:50;;;;;;;;;;;10.10;77.10;;;;;;5057408;28;19959;-84
2022/12/01 00:24:16;;;;;;;;;;;10.10;76.40;;;;;;5044303;28;20357;-82
2022/12/01 00:26:41;;;;;;;;;;;10.10;76.40;;;;;;5051181;28;19921;-81
2022/12/01 00:29:07;;;;;;;;;;;10.10;76.40;;;;;;5032607;28;19951;-82
2022/12/01 00:31:33;;;;;;;;;;;10.10;76.40;;;;;;5053977;28;19913;-82
2022/12/01 00:33:58;;;;;;;;;;;10.10;76.40;;;;;;5050004;28;19929;-81
2022/12/01 00:36:24;;;;;;;;;;;10.10;76.40;;;;;;5048057;28;20404;-83
2022/12/01 00:38:53;;;;;;;;;;;10.00;76.30;;;;;;5038788;28;20400;-82
2022/12/01 00:41:19;;;;;;;;;;;10.00;76.40;;;;;;5063685;28;20007;-82
2022/12/01 00:43:45;;;;;;;;;;;10.00;76.30;;;;;;5049659;28;19920;-82
2022/12/01 00:46:11;;;;;;;;;;;10.00;76.30;;;;;;5052218;28;19912;-83
2022/12/01 00:48:36;;;;;;;;;;;10.00;76.30;;;;;;5075882;28;19932;-82
2022/12/01 00:51:03;;;;;;;;;;;10.00;76.30;;;;;;5063029;28;19916;-82
2022/12/01 00:53:29;;;;;;;;;;;10.00;76.40;;;;;;5071783;28;19963;-83
2022/12/01 00:55:54;;;;;;;;;;;10.00;76.40;;;;;;5053232;28;19978;-81
2022/12/01 00:58:21;;;;;;;;;;;10.00;76.30;;;;;;5052804;28;19920;-82
2022/12/01 01:00:46;;;;;;;;;;;10.00;76.30;;;;;;5069094;28;19922;-82
2022/12/01 01:03:12;;;;;;;;;;;10.00;76.30;;;;;;5066535;28;19916;-81
2022/12/01 01:05:38;;;;;;;;;;;10.00;76.40;;;;;;5050684;28;20322;-82
2022/12/01 01:08:08;;;;;;;;;;;10.00;76.40;;;;;;5056371;28;19916;-81
2022/12/01 01:10:36;;;;;;;;;;;10.00;76.40;;;;;;5064080;28;19920;-82
2022/12/01 01:13:02;;;;;;;;;;;10.00;76.40;;;;;;5069645;28;19912;-82
2022/12/01 01:15:28;;;;;;;;;;;10.00;76.30;;;;;;5064527;28;19928;-82
2022/12/01 01:17:53;;;;;;;;;;;10.00;76.40;;;;;;5065741;28;19985;-82
2022/12/01 01:20:19;;;;;;;;;;;10.00;76.40;;;;;;5072606;28;19990;-82
2022/12/01 01:22:44;;;;;;;;;;;10.00;76.40;;;;;;5049703;28;19936;-82
2022/12/01 01:25:10;;;;;;;;;;;10.00;76.40;;;;;;5070986;28;20387;-81
2022/12/01 01:27:36;;;;;;;;;;;10.00;76.40;;;;;;5073110;28;19954;-82
2022/12/01 01:30:01;;;;;;;;;;;10.00;76.40;;;;;;5055449;28;19916;-81
2022/12/01 01:32:27;;;;;;;;;;;10.00;76.30;;;;;;5056554;28;19917;-82
2022/12/01 01:34:52;;;;;;;;;;;10.00;76.40;;;;;;5053762;28;19924;-82
2022/12/01 01:37:18;;;;;;;;;;;10.00;76.40;;;;;;5044112;28;19947;-81
2022/12/01 01:39:44;;;;;;;;;;;10.00;76.40;;;;;;5064148;28;19940;-82
2022/12/01 01:42:12;;;;;;;;;;;10.00;76.40;;;;;;5056357;28;19924;-82
2022/12/01 01:44:43;;;;;;;;;;;10.00;76.40;;;;;;5052247;28;20556;-82
2022/12/01 01:47:09;;;;;;;;;;;10.00;76.40;;;;;;5074107;28;20361;-83
2022/12/01 01:49:35;;;;;;;;;;;9.90;76.40;;;;;;5103449;28;19998;-82
2022/12/01 01:52:03;;;;;;;;;;;10.00;76.40;;;;;;5080884;28;19931;-83
2022/12/01 01:54:48;;;;;;;;;;;9.90;76.30;;;;;;5073653;28;19920;-82
2022/12/01 01:57:17;;;;;;;;;;;10.00;76.40;;;;;;5078029;28;19912;-82
2022/12/01 01:59:44;;;;;;;;;;;9.90;76.40;;;;;;5059945;28;19912;-84
2022/12/01 02:02:11;;;;;;;;;;;9.90;76.30;;;;;;5089687;28;19912;-81
2022/12/01 02:04:39;;;;;;;;;;;9.90;76.30;;;;;;5080242;28;19937;-83
2022/12/01 02:07:05;;;;;;;;;;;9.90;76.30;;;;;;5056591;28;19912;-82
2022/12/01 02:09:31;;;;;;;;;;;9.90;76.30;;;;;;5073827;28;19919;-83
2022/12/01 02:12:11;;;;;;;;;;;9.90;76.30;;;;;;5074678;28;19939;-83
2022/12/01 02:14:36;;;;;;;;;;;9.90;76.30;;;;;;5060681;28;20483;-82
2022/12/01 02:17:05;;;;;;;;;;;9.90;76.30;;;;;;5094171;28;19937;-85
2022/12/01 02:19:43;;;;;;;;;;;9.90;76.40;;;;;;5082676;28;19948;-84
2022/12/01 02:22:18;;;;;;;;;;;9.90;76.40;;;;;;5077047;28;20470;-83
2022/12/01 02:24:49;;;;;;;;;;;9.90;76.40;;;;;;5079232;28;19983;-84
2022/12/01 02:27:15;;;;;;;;;;;9.90;76.40;;;;;;5064117;28;19912;-82
2022/12/01 02:30:03;;;;;;;;;;;9.90;76.50;;;;;;5086569;28;20413;-83
2022/12/01 02:32:47;;;;;;;;;;;9.90;76.40;;;;;;5073130;28;19962;-83
2022/12/01 02:35:13;;;;;;;;;;;9.90;76.40;;;;;;5091750;28;19999;-83
2022/12/01 02:37:43;;;;;;;;;;;9.90;76.40;;;;;;5074070;28;19942;-81
2022/12/01 02:40:13;;;;;;;;;;;9.90;76.40;;;;;;5075136;28;20333;-81
2022/12/01 02:42:52;;;;;;;;;;;9.90;76.40;;;;;;5066382;28;20387;-82
2022/12/01 02:45:24;;;;;;;;;;;9.90;76.40;;;;;;5089900;28;20468;-82
2022/12/01 02:47:52;;;;;;;;;;;9.90;76.40;;;;;;5054089;28;19931;-83
2022/12/01 02:50:19;;;;;;;;;;;9.90;76.40;;;;;;5075919;28;19920;-82
2022/12/01 02:52:44;;;;;;;;;;;9.90;76.40;;;;;;5072152;28;19916;-82
2022/12/01 02:55:11;;;;;;;;;;;9.90;76.40;;;;;;5066989;28;20016;-82
2022/12/01 02:57:37;;;;;;;;;;;9.90;76.40;;;;;;5090117;28;19928;-82
2022/12/01 03:00:03;;;;;;;;;;;9.90;76.40;;;;;;5079799;28;19916;-82
2022/12/01 03:02:49;;;;;;;;;;;9.90;76.40;;;;;;5063253;28;20111;-83
2022/12/01 03:05:15;;;;;;;;;;;9.90;76.40;;;;;;5073143;28;19913;-83
2022/12/01 03:07:50;;;;;;;;;;;9.90;76.40;;;;;;5058172;28;19928;-83
2022/12/01 03:10:39;;;;;;;;;;;9.90;76.40;;;;;;5093240;28;19912;-83
2022/12/01 03:13:08;;;;;;;;;;;9.90;76.40;;;;;;5068177;28;19935;-83
2022/12/01 03:15:47;;;;;;;;;;;9.90;76.40;;;;;;5093386;28;19923;-83
2022/12/01 03:18:12;;;;;;;;;;;9.90;76.40;;;;;;5083375;28;20340;-81
2022/12/01 03:20:46;;;;;;;;;;;9.90;76.40;;;;;;5073909;28;19934;-83
2022/12/01 03:23:15;;;;;;;;;;;9.90;76.40;;;;;;5090603;28;19916;-82
2022/12/01 03:25:43;;;;;;;;;;;9.80;76.40;;;;;;5053427;28;19955;-82
2022/12/01 03:28:12;;;;;;;;;;;9.90;76.40;;;;;;5055204;28;19916;-83
2022/12/01 03:30:37;;;;;;;;;;;9.90;76.40;;;;;;5054724;28;19912;-82
2022/12/01 03:33:07;;;;;;;;;;;9.80;76.30;;;;;;5074195;28;19966;-82
2022/12/01 03:35:37;;;;;;;;;;;9.90;76.40;;;;;;5063956;28;19924;-83
2022/12/01 03:38:22;;;;;;;;;;;9.80;76.30;;;;;;5075551;28;19912;-81
2022/12/01 03:40:49;;;;;;;;;;;9.80;77.00;;;;;;5076554;28;20336;-84
2022/12/01 03:43:18;;;;;;;;;;;9.80;76.30;;;;;;5056136;28;19916;-83
2022/12/01 03:46:06;;;;;;;;;;;9.80;76.30;;;;;;5066909;28;19931;-82
2022/12/01 03:48:32;;;;;;;;;;;9.80;76.30;;;;;;5077025;28;19920;-82
2022/12/01 03:51:04;;;;;;;;;;;9.80;76.30;;;;;;5073771;28;19911;-82
2022/12/01 03:53:41;;;;;;;;;;;9.80;76.40;;;;;;5056071;28;20018;-82
2022/12/01 03:56:07;;;;;;;;;;;9.80;76.30;;;;;;5085028;28;19962;-82
2022/12/01 03:58:39;;;;;;;;;;;9.80;76.30;;;;;;5060110;28;19921;-81
2022/12/01 04:01:06;;;;;;;;;;;9.80;76.30;;;;;;5071906;28;19912;-81
2022/12/01 04:03:32;;;;;;;;;;;9.80;76.40;;;;;;5058000;28;19912;-82
2022/12/01 04:05:58;;;;;;;;;;;9.80;76.40;;;;;;5090682;28;19939;-81
2022/12/01 04:08:24;;;;;;;;;;;9.80;76.40;;;;;;5055176;28;19916;-81
2022/12/01 04:10:49;;;;;;;;;;;9.80;76.40;;;;;;5085774;28;20425;-81
2022/12/01 04:13:21;;;;;;;;;;;9.80;76.30;;;;;;5072977;28;19913;-81
2022/12/01 04:15:48;;;;;;;;;;;9.80;76.30;;;;;;5090267;28;19940;-82
2022/12/01 04:18:14;;;;;;;;;;;9.80;76.40;;;;;;5060156;28;19916;-81
2022/12/01 04:20:42;;;;;;;;;;;9.80;76.30;;;;;;5058383;28;19920;-83
2022/12/01 04:23:07;;;;;;;;;;;9.80;76.30;;;;;;5066977;28;20442;-83
2022/12/01 04:25:33;;;;;;;;;;;9.80;76.30;;;;;;5092194;28;19959;-81
2022/12/01 04:27:59;;;;;;;;;;;9.80;76.30;;;;;;5078381;28;19920;-83
2022/12/01 04:30:24;;;;;;;;;;;9.80;76.30;;;;;;5061431;28;19916;-82
2022/12/01 04:32:50;;;;;;;;;;;9.80;76.40;;;;;;5066940;28;20329;-82
2022/12/01 04:35:15;;;;;;;;;;;9.80;76.30;;;;;;5072335;28;19930;-81
2022/12/01 04:37:41;;;;;;;;;;;9.80;76.30;;;;;;5094756;28;19912;-81
2022/12/01 04:40:07;;;;;;;;;;;9.80;76.30;;;;;;5067075;28;19978;-81
2022/12/01 04:42:33;;;;;;;;;;;9.80;76.30;;;;;;5081214;28;19917;-82
2022/12/01 04:44:58;;;;;;;;;;;9.80;76.30;;;;;;5087375;28;19920;-82
2022/12/01 04:47:24;;;;;;;;;;;9.80;76.30;;;;;;5058151;28;19928;-80
2022/12/01 04:49:50;;;;;;;;;;;9.80;76.30;;;;;;5072643;28;19935;-82
2022/12/01 04:52:15;;;;;;;;;;;9.80;76.40;;;;;;5076142;28;20284;-82
2022/12/01 04:54:41;;;;;;;;;;;9.80;76.30;;;;;;5061885;28;19950;-80
2022/12/01 04:57:06;;;;;;;;;;;9.80;76.30;;;;;;5078798;28;19916;-82
2022/12/01 04:59:32;;;;;;;;;;;9.80;76.40;;;;;;5062346;28;20307;-82
2022/12/01 05:01:58;;;;;;;;;;;9.80;76.30;;;;;;5068002;28;19923;-81
2022/12/01 05:04:23;;;;;;;;;;;9.80;76.30;;;;;;5061906;28;19952;-81
2022/12/01 05:06:49;;;;;;;;;;;9.80;76.30;;;;;;5065877;28;19948;-82
2022/12/01 05:09:15;;;;;;;;;;;9.80;76.30;;;;;;5075435;28;19923;-81
2022/12/01 05:11:42;;;;;;;;;;;9.80;76.40;;;;;;5059047;28;19916;-82
2022/12/01 05:14:08;;;;;;;;;;;9.80;76.30;;;;;;5093502;28;19993;-82
2022/12/01 05:16:33;;;;;;;;;;;9.80;76.30;;;;;;5072327;28;19920;-82
2022/12/01 05:21:46;;;;;;;;;;;9.70;76.30;;;;;;5083966;28;19919;-82
2022/12/01 05:24:12;;;;;;;;;;;9.70;76.30;;;;;;5078334;28;19947;-85
2022/12/01 05:26:38;;;;;;;;;;;9.70;76.30;;;;;;5058298;28;20407;-80
2022/12/01 05:29:03;;;;;;;;;;;9.80;76.40;;;;;;5061855;28;19916;-85
2022/12/01 05:31:29;;;;;;;;;;;9.70;76.30;;;;;;5068315;28;19920;-81
2022/12/01 05:33:55;;;;;;;;;;;9.70;76.30;;;;;;5056428;28;19927;-82
2022/12/01 05:36:21;;;;;;;;;;;9.70;76.30;;;;;;5068549;28;20315;-82
2022/12/01 05:38:47;;;;;;;;;;;9.70;76.30;;;;;;5071962;28;19917;-82
2022/12/01 05:41:13;;;;;;;;;;;9.70;76.30;;;;;;5071726;28;19917;-81
2022/12/01 05:43:39;;;;;;;;;;;9.70;76.40;;;;;;5071658;28;20349;-80
2022/12/01 05:46:04;;;;;;;;;;;9.80;76.40;;;;;;5064232;28;20000;-83
2022/12/01 05:48:30;;;;;;;;;;;9.70;76.30;;;;;;5055348;28;19931;-82
2022/12/01 05:50:55;;;;;;;;;;;9.70;76.30;;;;;;5067574;28;19948;-79
2022/12/01 05:53:21;;;;;;;;;;;9.70;76.30;;;;;;5055763;28;20678;-82
2022/12/01 05:55:51;;;;;;;;;;;9.70;76.30;;;;;;5067216;28;19939;-83
2022/12/01 05:58:16;;;;;;;;;;;9.70;76.30;;;;;;5075647;28;19916;-83
2022/12/01 06:00:42;;;;;;;;;;;9.70;76.40;;;;;;5068458;28;20272;-84
2022/12/01 06:03:08;;;;;;;;;;;9.70;76.30;;;;;;5076312;28;19916;-82
2022/12/01 06:05:33;;;;;;;;;;;9.70;76.30;;;;;;5090510;28;19920;-82
2022/12/01 06:07:59;;;;;;;;;;;9.70;76.30;;;;;;5057946;28;20253;-82
2022/12/01 06:10:24;;;;;;;;;;;9.70;76.30;;;;;;5058330;28;20301;-81
2022/12/01 06:12:50;;;;;;;;;;;9.70;76.30;;;;;;5057754;28;19919;-82
2022/12/01 06:15:16;;;;;;;;;;;9.70;76.30;;;;;;5061919;28;19924;-81
2022/12/01 06:17:41;;;;;;;;;;;9.70;76.30;;;;;;5074725;28;19955;-81
2022/12/01 06:20:08;;;;;;;;;;;9.70;76.30;;;;;;5056838;28;19917;-81
2022/12/01 06:22:34;;;;;;;;;;;9.70;76.30;;;;;;5071605;28;19916;-80
2022/12/01 06:24:59;;;;;;;;;;;9.60;76.30;;;;;;5058297;28;20003;-82
2022/12/01 06:27:25;;;;;;;;;;;9.60;76.30;;;;;;5075944;28;19916;-82
2022/12/01 06:29:50;;;;;;;;;;;9.60;76.30;;;;;;5048458;28;20015;-80
2022/12/01 06:32:16;;;;;;;;;;;9.60;76.30;;;;;;5053338;28;19916;-82
2022/12/01 06:34:42;;;;;;;;;;;9.60;76.30;;;;;;5075142;28;19927;-80
2022/12/01 06:37:08;;;;;;;;;;;9.60;76.30;;;;;;5075410;28;19916;-80
2022/12/01 06:39:34;;;;;;;;;;;9.60;76.30;;;;;;5059342;28;20002;-80
2022/12/01 06:41:59;;;;;;;;;;;9.70;76.30;;;;;;5057612;28;19916;-81
2022/12/01 06:44:25;;;;;;;;;;;9.60;76.30;;;;;;5075075;28;20335;-81
2022/12/01 06:46:51;;;;;;;;;;;9.60;76.30;;;;;;5060654;28;19939;-81
2022/12/01 06:49:17;;;;;;;;;;;9.60;76.30;;;;;;5053963;28;19924;-80
2022/12/01 06:51:43;;;;;;;;;;;9.60;76.30;;;;;;5061972;28;20449;-81
2022/12/01 06:54:10;;;;;;;;;;;9.60;76.30;;;;;;5061109;28;19935;-83
2022/12/01 06:56:35;;;;;;;;;;;9.60;76.30;;;;;;5081734;28;19924;-80
2022/12/01 06:59:01;;;;;;;;;;;9.60;76.30;;;;;;5073785;28;20054;-81
2022/12/01 07:01:27;;;;;;;;;;;9.60;76.30;;;;;;5057848;28;19923;-80
2022/12/01 07:03:53;;;;;;;;;;;9.60;76.30;;;;;;5054240;28;20356;-82
2022/12/01 07:06:19;;;;;;;;;;;9.60;76.30;;;;;;5057779;28;20012;-82
2022/12/01 07:08:45;;;;;;;;;;;9.60;76.30;;;;;;5050408;28;19959;-82
2022/12/01 07:11:12;;;;;;;;;;;9.60;76.30;;;;;;5074730;28;19913;-82
2022/12/01 07:13:38;;;;;;;;;;;9.60;76.30;;;;;;5076495;28;20284;-79
2022/12/01 07:16:04;;;;;;;;;;;9.60;76.30;;;;;;5076856;28;20284;-81
2022/12/01 07:18:31;;;;;;;;;;;9.60;76.30;;;;;;5077669;28;20880;-81
2022/12/01 07:21:00;;;;;;;;;;;9.60;76.30;;;;;;5058192;28;19916;-81
2022/12/01 07:23:26;;;;;;;;;;;9.60;76.30;;;;;;5054475;28;19916;-81
2022/12/01 07:26:02;;;;;;;;;;;9.60;76.30;;;;;;5065966;28;19919;-81
2022/12/01 07:28:28;;;;;;;;;;;9.60;76.30;;;;;;5078159;28;19995;-82
2022/12/01 07:30:53;;;;;;;;;;;9.60;76.30;;;;;;5077570;28;20050;-82
2022/12/01 07:33:19;;;;;;;;;;;9.50;76.20;;;;;;5056339;28;20050;-82
2022/12/01 07:35:44;;;;;;;;;;;9.60;76.30;;;;;;5092991;28;19932;-82
2022/12/01 07:38:10;;;;;;;;;;;9.60;76.30;;;;;;5069557;28;19956;-81
2022/12/01 07:40:35;;;;;;;;;;;9.50;76.30;;;;;;5057783;28;20305;-82
2022/12/01 07:43:01;;;;;;;;;;;9.50;76.20;;;;;;5046483;28;19916;-83
2022/12/01 07:45:27;;;;;;;;;;;9.50;76.20;;;;;;5074804;28;19916;-82
2022/12/01 07:47:53;;;;;;;;;;;9.50;76.30;;;;;;5093977;28;20284;-80
2022/12/01 07:50:19;;;;;;;;;;;9.50;76.20;;;;;;5054585;28;19916;-81
2022/12/01 07:52:48;;;;;;;;;;;9.50;76.30;;;;;;5060626;28;19935;-82
2022/12/01 07:55:13;;;;;;;;;;;9.50;76.30;;;;;;5074621;28;20003;-82
2022/12/01 07:57:39;;;;;;;;;;;9.50;76.20;;;;;;5059646;28;20004;-80
2022/12/01 08:00:06;;;;;;;;;;;9.50;76.30;;;;;;5072829;28;19916;-81
2022/12/01 08:02:37;;;;;;;;;;;9.50;76.30;;;;;;5077925;28;19941;-81
2022/12/01 08:05:03;;;;;;;;;;;9.50;76.30;;;;;;5043251;28;20499;-81
2022/12/01 08:07:28;;;;;;;;;;;9.50;76.30;;;;;;5073910;28;20027;-82
2022/12/01 08:09:54;;;;;;;;;;;9.50;76.30;;;;;;5058919;28;19938;-81
2022/12/01 08:12:19;;;;;;;;;;;9.50;76.30;;;;;;5068926;28;19981;-81
2022/12/01 08:14:45;;;;;;;;;;;9.50;76.30;;;;;;5068309;28;19924;-81
2022/12/01 08:17:11;;;;;;;;;;;9.50;76.30;;;;;;5055677;28;19920;-84
2022/12/01 08:19:36;;;;;;;;;;;9.50;76.20;;;;;;5043231;28;20065;-83
2022/12/01 08:22:02;;;;;;;;;;;9.50;76.30;;;;;;5071270;28;19962;-82
2022/12/01 08:24:28;;;;;;;;;;;9.50;76.30;;;;;;5067318;28;19919;-81
2022/12/01 08:26:53;;;;;;;;;;;9.50;76.30;;;;;;5072935;28;20376;-81
2022/12/01 08:29:19;;;;;;;;;;;9.50;76.30;;;;;;5084323;28;19950;-83
2022/12/01 08:31:44;;;;;;;;;;;9.50;76.30;;;;;;5059722;28;20383;-82
2022/12/01 08:34:10;;;;;;;;;;;9.50;76.30;;;;;;5093355;28;19924;-82
2022/12/01 08:36:36;;;;;;;;;;;9.50;76.30;;;;;;5070363;28;19962;-79
2022/12/01 08:39:02;;;;;;;;;;;9.50;76.30;;;;;;5069101;28;19916;-82
2022/12/01 08:41:28;;;;;;;;;;;9.50;76.30;;;;;;5089842;28;19916;-81
2022/12/01 08:43:53;;;;;;;;;;;9.50;76.30;;;;;;5084621;28;19916;-80
2022/12/01 08:46:19;;;;;;;;;;;9.50;76.30;;;;;;5069772;28;19920;-82
2022/12/01 08:48:45;;;;;;;;;;;9.50;76.30;;;;;;5075102;28;19927;-81
2022/12/01 08:51:13;;;;;;;;;;;9.50;76.30;;;;;;5056050;28;19916;-80
2022/12/01 08:53:39;;;;;;;;;;;9.50;76.30;;;;;;5069027;28;19913;-80
2022/12/01 08:56:11;;;;;;;;;;;9.50;76.30;;;;;;5083876;28;19966;-79
2022/12/01 08:58:37;;;;;;;;;;;9.50;76.30;;;;;;5047278;28;19926;-80
2022/12/01 09:01:03;;;;;;;;;;;9.50;76.30;;;;;;5074532;28;20261;-82
2022/12/01 09:03:29;;;;;;;;;;;9.50;76.30;;;;;;5093927;28;19947;-79
2022/12/01 09:05:59;;;;;;;;;;;9.40;76.20;;;;;;5055271;28;19963;-81
2022/12/01 09:08:31;;;;;;;;;;;9.50;76.30;;;;;;5088085;28;20311;-81
2022/12/01 09:10:57;;;;;;;;;;;9.50;76.30;;;;;;5075228;28;19916;-82
2022/12/01 09:13:23;;;;;;;;;;;9.50;76.30;;;;;;5057978;28;19955;-79
2022/12/01 09:16:00;;;;;;;;;;;9.50;76.30;;;;;;5089748;28;19947;-80
2022/12/01 09:18:26;;;;;;;;;;;9.50;76.30;;;;;;5087207;28;19974;-81
2022/12/01 09:20:52;;;;;;;;;;;9.50;76.30;;;;;;5075035;28;20312;-79
2022/12/01 09:23:17;;;;;;;;;;;9.50;76.30;;;;;;5053155;28;19941;-84
2022/12/01 09:25:43;;;;;;;;;;;9.50;76.30;;;;;;5058723;28;19951;-81
2022/12/01 09:28:08;;;;;;;;;;;9.50;76.30;;;;;;5067064;28;20011;-82
2022/12/01 09:30:34;;;;;;;;;;;9.50;76.30;;;;;;5044778;28;19916;-81
2022/12/01 09:33:00;;;;;;;;;;;9.50;76.30;;;;;;5048838;28;19916;-82
2022/12/01 09:35:26;;;;;;;;;;;9.50;76.30;;;;;;5098798;28;20019;-83
2022/12/01 09:37:52;;;;;;;;;;;9.50;76.30;;;;;;5062741;28;20421;-83
2022/12/01 09:40:18;;;;;;;;;;;9.60;76.30;;;;;;5054907;28;19916;-82
2022/12/01 09:42:46;;;;;;;;;;;9.60;76.30;;;;;;5063661;28;20376;-83
2022/12/01 09:45:19;;;;;;;;;;;9.50;76.30;;;;;;5061669;28;19924;-85
2022/12/01 09:47:45;;;;;;;;;;;9.60;76.40;;;;;;5065217;28;19919;-83
2022/12/01 09:50:22;;;;;;;;;;;9.60;76.30;;;;;;5077884;28;19924;-84
2022/12/01 09:52:53;;;;;;;;;;;9.60;76.30;;;;;;5088298;28;19919;-81
2022/12/01 09:55:21;;;;;;;;;;;9.60;76.30;;;;;;5062739;28;19920;-83
2022/12/01 09:57:48;;;;;;;;;;;9.60;76.30;;;;;;5068910;28;20301;-82
2022/12/01 10:00:19;;;;;;;;;;;9.60;76.30;;;;;;5077599;28;19916;-84
2022/12/01 10:03:04;;;;;;;;;;;9.60;76.30;;;;;;5058572;28;20422;-83
2022/12/01 10:05:37;;;;;;;;;;;9.60;76.30;;;;;;5074594;28;19912;-84
2022/12/01 10:08:04;;;;;;;;;;;9.60;76.30;;;;;;5094195;28;20360;-84
2022/12/01 10:10:41;;;;;;;;;;;9.60;76.30;;;;;;5072152;28;19916;-85
2022/12/01 10:13:15;;;;;;;;;;;9.60;76.30;;;;;;5047762;28;19920;-84
2022/12/01 10:15:58;;;;;;;;;;;9.60;76.30;;;;;;5074196;28;20081;-83
2022/12/01 10:18:48;;;;;;;;;;;9.60;76.40;;;;;;5067264;28;19924;-83
2022/12/01 10:21:23;;;;;;;;;;;9.70;76.40;;;;;;5058956;28;19912;-82
2022/12/01 10:24:08;;;;;;;;;;;9.70;76.40;;;;;;5089424;28;19916;-82
2022/12/01 10:26:40;;;;;;;;;;;9.70;76.40;;;;;;5058289;28;19913;-83
2022/12/01 10:29:24;;;;;;;;;;;9.70;76.40;;;;;;5086813;28;19912;-82
2022/12/01 10:31:58;;;;;;;;;;;9.70;76.40;;;;;;5071439;28;19916;-83
2022/12/01 10:34:24;;;;;;;;;;;9.70;76.40;;;;;;5069996;28;19931;-86
2022/12/01 10:36:49;;;;;;;;;;;9.70;76.40;;;;;;5077955;28;20310;-82
2022/12/01 10:39:18;;;;;;;;;;;9.70;76.40;;;;;;5083083;28;19969;-84
2022/12/01 10:41:44;;;;;;;;;;;9.70;76.40;;;;;;5076026;28;19962;-82
2022/12/01 10:44:11;;;;;;;;;;;9.80;76.50;;;;;;5076082;28;20015;-84
2022/12/01 10:46:42;;;;;;;;;;;9.80;76.40;;;;;;5069322;28;20379;-81
2022/12/01 10:49:15;;;;;;;;;;;9.70;76.40;;;;;;5052162;28;20009;-83
2022/12/01 10:51:48;;;;;;;;;;;9.80;76.40;;;;;;5075074;28;19912;-82
2022/12/01 10:54:14;;;;;;;;;;;9.80;76.40;;;;;;5063483;28;20394;-83
2022/12/01 10:56:40;;;;;;;;;;;9.80;76.40;;;;;;5065841;28;19920;-82
2022/12/01 10:59:20;;;;;;;;;;;9.80;76.40;;;;;;5056166;28;19938;-82
2022/12/01 11:01:47;;;;;;;;;;;9.80;76.40;;;;;;5059532;28;19908;-80
2022/12/01 11:04:18;;;;;;;;;;;9.80;76.40;;;;;;5080345;28;19919;-83
2022/12/01 11:06:47;;;;;;;;;;;9.90;76.40;;;;;;5075472;28;20385;-83
2022/12/01 11:09:20;;;;;;;;;;;9.90;76.40;;;;;;5091042;28;19912;-82
2022/12/01 11:11:52;;;;;;;;;;;9.90;76.40;;;;;;5097844;28;19912;-81
2022/12/01 11:14:20;;;;;;;;;;;9.90;76.40;;;;;;5085742;28;20356;-81
2022/12/01 11:16:46;;;;;;;;;;;9.90;76.40;;;;;;5062064;28;20299;-80
2022/12/01 11:19:32;;;;;;;;;;;9.90;76.40;;;;;;5057211;28;19908;-82
2022/12/01 11:21:59;;;;;;;;;;;9.90;76.40;;;;;;5077834;28;20375;-81
2022/12/01 11:24:44;;;;;;;;;;;9.90;76.40;;;;;;5064399;28;19912;-80
2022/12/01 11:27:21;;;;;;;;;;;9.90;76.40;;;;;;5083565;28;19916;-81
2022/12/01 11:29:48;;;;;;;;;;;10.00;76.40;;;;;;5093927;28;19916;-81
2022/12/01 11:32:16;;;;;;;;;;;10.00;76.40;;;;;;5058565;28;20031;-82
2022/12/01 11:34:46;;;;;;;;;;;10.00;76.40;;;;;;5088465;28;19920;-84
2022/12/01 11:37:14;;;;;;;;;;;10.00;76.40;;;;;;5074159;28;19916;-82
2022/12/01 11:39:41;;;;;;;;;;;10.00;76.40;;;;;;5060054;28;19946;-81
2022/12/01 11:42:13;;;;;;;;;;;10.00;76.40;;;;;;5071068;28;19912;-81
2022/12/01 11:44:39;;;;;;;;;;;10.10;76.40;;;;;;5089708;28;19927;-83
2022/12/01 11:47:31;;;;;;;;;;;10.10;76.50;;;;;;5075611;28;19919;-83
2022/12/01 11:49:59;;;;;;;;;;;10.00;76.40;;;;;;5084179;28;19965;-83
2022/12/01 11:52:37;;;;;;;;;;;10.10;76.50;;;;;;5052946;28;20396;-83
2022/12/01 11:55:12;;;;;;;;;;;10.10;76.40;;;;;;5088121;28;19923;-82
2022/12/01 11:57:39;;;;;;;;;;;10.10;76.40;;;;;;5062003;28;19924;-81
2022/12/01 12:00:16;;;;;;;;;;;10.10;76.40;;;;;;5074322;28;20356;-83
2022/12/01 12:02:51;;;;;;;;;;;10.10;76.40;;;;;;5073711;28;19912;-81
2022/12/01 12:05:36;;;;;;;;;;;10.10;76.40;;;;;;5069236;28;19972;-83
2022/12/01 12:08:05;;;;;;;;;;;10.10;76.40;;;;;;5070978;28;20026;-83
2022/12/01 12:10:45;;;;;;;;;;;10.20;76.40;;;;;;5073158;28;19918;-83
2022/12/01 12:13:18;;;;;;;;;;;10.20;76.40;;;;;;5092134;28;20424;-82
2022/12/01 12:16:03;;;;;;;;;;;10.20;76.40;;;;;;5061287;28;19916;-82
2022/12/01 12:18:38;;;;;;;;;;;10.20;76.40;;;;;;5073076;28;20005;-82
2022/12/01 12:21:07;;;;;;;;;;;10.20;76.40;;;;;;5094046;28;19909;-81
2022/12/01 12:23:33;;;;;;;;;;;10.20;76.30;;;;;;5078751;28;19995;-81
2022/12/01 12:26:08;;;;;;;;;;;10.20;76.40;;;;;;5080661;28;19916;-81
2022/12/01 12:28:40;;;;;;;;;;;10.20;76.30;;;;;;5058175;28;19912;-85
2022/12/01 12:31:06;;;;;;;;;;;10.30;76.40;;;;;;5075215;28;19978;-81
2022/12/01 12:33:38;;;;;;;;;;;10.30;76.40;;;;;;5073086;28;20508;-83
2022/12/01 12:36:18;;;;;;;;;;;10.30;76.40;;;;;;5094067;28;19963;-81
2022/12/01 12:38:53;;;;;;;;;;;10.30;76.40;;;;;;5075271;28;20434;-83
2022/12/01 12:41:39;;;;;;;;;;;10.30;76.30;;;;;;5066224;28;19998;-81
2022/12/01 12:44:23;;;;;;;;;;;10.30;76.30;;;;;;5067471;28;20008;-83
2022/12/01 12:46:55;;;;;;;;;;;10.30;76.30;;;;;;5071185;28;20436;-85
2022/12/01 12:49:21;;;;;;;;;;;10.30;76.30;;;;;;5073569;28;19970;-81
2022/12/01 12:51:53;;;;;;;;;;;10.30;76.30;;;;;;5067847;28;19912;-82
2022/12/01 12:54:37;;;;;;;;;;;10.30;76.20;;;;;;5070519;28;19943;-82
2022/12/01 12:57:26;;;;;;;;;;;10.30;76.20;;;;;;5071759;28;19974;-82
2022/12/01 12:59:56;;;;;;;;;;;10.40;76.30;;;;;;5054664;28;19916;-81
2022/12/01 13:02:28;;;;;;;;;;;10.30;76.20;;;;;;5083775;28;19913;-82
2022/12/01 13:04:56;;;;;;;;;;;10.40;76.30;;;;;;5060137;28;19912;-83
2022/12/01 13:07:22;;;;;;;;;;;10.30;76.20;;;;;;5072568;28;19912;-82
2022/12/01 13:09:51;;;;;;;;;;;10.40;76.20;;;;;;5088571;28;19938;-82
2022/12/01 13:12:20;;;;;;;;;;;10.40;76.20;;;;;;5071688;28;19916;-82
2022/12/01 13:14:49;;;;;;;;;;;10.40;76.20;;;;;;5071236;28;19922;-81
2022/12/01 13:17:18;;;;;;;;;;;10.40;76.20;;;;;;5077132;28;19916;-81
2022/12/01 13:19:44;;;;;;;;;;;10.40;76.20;;;;;;5062673;28;19919;-84
2022/12/01 13:22:11;;;;;;;;;;;10.40;76.20;;;;;;5097665;28;20006;-82
2022/12/01 13:24:36;;;;;;;;;;;10.50;76.20;;;;;;5064662;28;19912;-82
2022/12/01 13:27:04;;;;;;;;;;;10.40;76.10;;;;;;5064386;28;19985;-86
2022/12/01 13:29:34;;;;;;;;;;;10.40;76.10;;;;;;5063433;28;20019;-82
2022/12/01 13:32:00;;;;;;;;;;;10.40;76.10;;;;;;5077321;28;19916;-82
2022/12/01 13:34:33;;;;;;;;;;;10.50;76.10;;;;;;5061830;28;19920;-85
2022/12/01 13:36:58;;;;;;;;;;;10.50;76.10;;;;;;5077566;28;19930;-83
2022/12/01 13:39:26;;;;;;;;;;;10.50;76.70;;;;;;5053071;28;19912;-83
2022/12/01 13:41:56;;;;;;;;;;;10.50;76.10;;;;;;5074442;28;19935;-83
2022/12/01 13:44:24;;;;;;;;;;;10.50;76.20;;;;;;5062083;28;19977;-83
2022/12/01 13:46:51;;;;;;;;;;;10.50;76.10;;;;;;5086610;28;19924;-82
2022/12/01 13:49:47;;;;;;;;;;;10.50;76.10;;;;;;5084258;28;19920;-83
2022/12/01 13:52:22;;;;;;;;;;;10.50;76.10;;;;;;5035361;28;19912;-81
2022/12/01 13:55:12;;;;;;;;;;;10.50;76.10;;;;;;5069704;28;19978;-82
2022/12/01 13:57:42;;;;;;;;;;;10.50;76.30;;;;;;5093766;28;19924;-82
2022/12/01 14:00:11;;;;;;;;;;;10.50;76.10;;;;;;5082899;28;19973;-82
2022/12/01 14:02:40;;;;;;;;;;;10.50;76.10;;;;;;5088034;28;19916;-83
2022/12/01 14:05:21;;;;;;;;;;;10.50;76.10;;;;;;5066565;28;20281;-82
2022/12/01 14:07:47;;;;;;;;;;;10.50;76.10;;;;;;5097857;28;19916;-82
2022/12/01 14:10:19;;;;;;;;;;;10.50;76.10;;;;;;5083884;28;19916;-83
2022/12/01 14:12:45;;;;;;;;;;;10.50;76.10;;;;;;5076379;28;20331;-82
2022/12/01 14:15:20;;;;;;;;;;;10.50;76.10;;;;;;5056441;28;19916;-82
2022/12/01 14:17:46;;;;;;;;;;;10.50;76.10;;;;;;5074766;28;20010;-82
2022/12/01 14:20:11;;;;;;;;;;;10.50;76.10;;;;;;5050417;28;19999;-83
2022/12/01 14:22:39;;;;;;;;;;;10.50;76.10;;;;;;5060509;28;19920;-82
2022/12/01 14:25:19;;;;;;;;;;;10.50;76.10;;;;;;5072673;28;19912;-82
2022/12/01 14:27:45;;;;;;;;;;;10.50;76.10;;;;;;5073720;28;20007;-83
2022/12/01 14:30:30;;;;;;;;;;;10.50;76.10;;;;;;5056965;28;19923;-82
2022/12/01 14:33:15;;;;;;;;;;;10.50;76.00;;;;;;5073573;28;19959;-83
2022/12/01 14:35:41;;;;;;;;;;;10.50;76.00;;;;;;5070401;28;19916;-83
2022/12/01 14:38:08;;;;;;;;;;;10.50;76.10;;;;;;5077356;28;20330;-84
2022/12/01 14:40:34;;;;;;;;;;;10.50;76.00;;;;;;5069163;28;19917;-83
2022/12/01 14:46:03;;;;;;;;;;;10.50;76.00;;;;;;5066609;28;19962;-83